Time;durP1;ratioP1;P1;durP2;ratioP2;P2;SDS_P1;SDS_P2;PMS_P1;PMS_P2;Temp;Humidity;BMP_temperature;BMP_pressure;BME280_temperature;BME280_humidity;BME280_pressure;Samples;Min_cycle;Max_cycle;Signal;HPM_P1;HPM_P2
2022/12/29 00:01:31;;;;;;;4.67;4.00;;;;;;;8.08;100.00;100206.09;4970620;28;20196;-72
2022/12/29 00:03:57;;;;;;;6.10;4.03;;;;;;;8.08;100.00;100180.59;4972451;28;20185;-72
2022/12/29 00:06:22;;;;;;;4.03;3.63;;;;;;;8.07;100.00;100184.00;4972526;28;20676;-72
2022/12/29 00:08:48;;;;;;;5.53;4.17;;;;;;;8.05;100.00;100181.41;4969473;28;20590;-72
2022/12/29 00:11:16;;;;;;;6.00;4.00;;;;;;;8.02;100.00;100185.59;4971872;28;20195;-72
2022/12/29 00:16:27;;;;;;;4.83;3.93;;;;;;;8.01;100.00;100171.97;4972123;28;20207;-71
2022/12/29 00:18:52;;;;;;;4.87;3.87;;;;;;;8.05;100.00;100181.41;4970524;28;20212;-72
2022/12/29 00:35:30;;;;;;;4.63;3.80;;;;;;;8.28;100.00;100182.72;4976098;28;20200;-71
2022/12/29 00:46:10;;;;;;;4.43;3.97;;;;;;;8.39;100.00;100163.34;4971327;28;20220;-71
2022/12/29 00:51:19;;;;;;;5.33;4.03;;;;;;;8.44;100.00;100159.16;4968954;28;20192;-71
2022/12/29 00:53:45;;;;;;;6.20;3.63;;;;;;;8.49;100.00;100147.38;4971227;28;20191;-71
2022/12/29 00:56:10;;;;;;;5.67;3.83;;;;;;;8.52;100.00;100157.63;4971233;28;20188;-70
2022/12/29 00:58:36;;;;;;;5.93;3.57;;;;;;;8.54;100.00;100153.41;4970743;28;20208;-70
2022/12/29 01:01:06;;;;;;;4.17;3.40;;;;;;;8.58;100.00;100151.75;4969335;28;20654;-70
2022/12/29 01:03:32;;;;;;;5.80;4.00;;;;;;;8.61;100.00;100145.00;4968914;28;20226;-70
2022/12/29 01:06:03;;;;;;;4.10;3.70;;;;;;;8.66;100.00;100151.03;4970943;28;20632;-70
2022/12/29 01:08:28;;;;;;;4.40;3.20;;;;;;;8.72;100.00;100156.25;4968039;28;20201;-70
2022/12/29 01:11:06;;;;;;;5.40;3.80;;;;;;;8.79;100.00;100146.97;4970582;28;20547;-70
2022/12/29 01:13:32;;;;;;;3.70;3.40;;;;;;;8.87;100.00;100138.63;4949964;28;20196;-71
2022/12/29 01:15:57;;;;;;;3.43;3.13;;;;;;;8.87;100.00;100136.06;4969503;28;20215;-70
2022/12/29 01:18:24;;;;;;;5.23;3.23;;;;;;;8.85;100.00;100130.06;4966575;28;20219;-70
2022/12/29 01:20:51;;;;;;;3.80;3.07;;;;;;;8.89;100.00;100111.41;4952759;28;20189;-70
2022/12/29 01:23:17;;;;;;;3.73;3.43;;;;;;;8.91;100.00;100113.97;4967463;28;20716;-71
2022/12/29 01:25:44;;;;;;;4.27;3.43;;;;;;;8.90;100.00;100117.38;4968711;28;20195;-71
2022/12/29 01:28:09;;;;;;;3.07;2.63;;;;;;;8.87;100.00;100118.19;4968553;28;20196;-70
2022/12/29 01:30:35;;;;;;;3.57;3.27;;;;;;;8.85;100.00;100108.78;4968662;28;20216;-70
2022/12/29 01:33:01;;;;;;;3.30;2.87;;;;;;;8.80;100.00;100103.59;4966491;28;20185;-70
2022/12/29 01:35:27;;;;;;;3.57;3.13;;;;;;;8.83;100.00;100103.66;4968309;28;20389;-70
2022/12/29 01:37:52;;;;;;;5.77;3.60;;;;;;;8.82;100.00;100109.63;4968914;28;20215;-70
2022/12/29 01:40:18;;;;;;;3.90;3.10;;;;;;;8.82;100.00;100096.84;4969565;28;20220;-70
2022/12/29 01:42:44;;;;;;;4.43;3.30;;;;;;;8.81;100.00;100086.63;4951421;28;20202;-70
2022/12/29 01:45:12;;;;;;;4.50;4.10;;;;;;;8.87;100.00;100087.56;4949370;28;20646;-71
2022/12/29 01:47:57;;;;;;;6.13;3.80;;;;;;;8.87;100.00;100084.13;4967251;28;20193;-70
2022/12/29 01:50:26;;;;;;;4.97;3.80;;;;;;;8.94;100.00;100074.03;4968455;28;20215;-70
2022/12/29 01:52:59;;;;;;;4.23;3.83;;;;;;;8.94;100.00;100081.69;4966437;28;20271;-72
2022/12/29 01:55:28;;;;;;;4.20;3.80;;;;;;;8.94;100.00;100070.63;4954727;28;20216;-72
2022/12/29 01:57:59;;;;;;;3.90;3.50;;;;;;;8.96;100.00;100074.03;4967869;28;20208;-72
2022/12/29 02:00:25;;;;;;;4.53;3.80;;;;;;;8.96;100.00;100076.59;4966091;28;20205;-72
2022/12/29 02:02:54;;;;;;;3.50;3.20;;;;;;;8.97;100.00;100078.31;4968511;28;20184;-71
2022/12/29 02:05:33;;;;;;;4.87;3.83;;;;;;;9.00;100.00;100070.69;4966862;28;20193;-71
2022/12/29 02:08:01;;;;;;;5.63;3.50;;;;;;;8.99;100.00;100069.81;4964761;28;20275;-71
2022/12/29 02:10:29;;;;;;;5.77;3.77;;;;;;;9.01;100.00;100072.41;4966124;28;20259;-71
2022/12/29 02:12:55;;;;;;;3.27;2.97;;;;;;;9.00;100.00;100065.59;4968922;28;20184;-72
2022/12/29 02:15:35;;;;;;;5.10;3.50;;;;;;;9.01;100.00;100068.16;4948958;28;20295;-72
2022/12/29 02:18:04;;;;;;;5.40;3.13;;;;;;;9.01;100.00;100073.28;4968656;28;20891;-70
2022/12/29 02:20:50;;;;;;;3.40;3.10;;;;;;;9.00;100.00;100071.56;4971457;28;20223;-72
2022/12/29 02:23:34;;;;;;;2.73;2.50;;;;;;;9.03;100.00;100065.66;4967340;28;20197;-72
2022/12/29 02:26:27;;;;;;;4.50;3.10;;;;;;;9.05;100.00;100061.41;4971494;28;20200;-72
2022/12/29 02:29:14;;;;;;;3.10;2.80;;;;;;;9.06;100.00;100047.78;4974194;28;20678;-73
2022/12/29 02:31:49;;;;;;;3.83;3.37;;;;;;;9.05;100.00;100049.50;4962318;28;20825;-73
2022/12/29 02:34:42;;;;;;;4.07;3.40;;;;;;;9.05;100.00;100058.84;4971148;28;20286;-72
2022/12/29 02:37:30;;;;;;;4.50;3.30;;;;;;;9.05;100.00;100051.19;4970247;28;20713;-71
2022/12/29 02:40:07;;;;;;;3.73;3.10;;;;;;;9.03;100.00;100046.06;4967564;28;20227;-71
2022/12/29 02:42:49;;;;;;;4.00;3.30;;;;;;;9.01;100.00;100045.19;4973285;28;20257;-71
2022/12/29 02:45:24;;;;;;;4.67;3.00;;;;;;;9.05;100.00;100040.97;4971790;28;20219;-70
2022/12/29 02:48:07;;;;;;;4.83;3.33;;;;;;;9.05;100.00;100040.97;4972313;28;20991;-71
2022/12/29 02:50:37;;;;;;;3.67;3.37;;;;;;;9.06;100.00;100040.13;4972091;28;20208;-72
2022/12/29 02:53:11;;;;;;;6.13;3.37;;;;;;;9.08;100.00;100041.84;4969680;28;20283;-70
2022/12/29 02:55:36;;;;;;;4.03;3.43;;;;;;;9.12;100.00;100024.91;4967180;28;20200;-73
2022/12/29 02:58:23;;;;;;;4.93;3.60;;;;;;;9.10;100.00;100035.09;4968043;28;20204;-72
2022/12/29 03:00:51;;;;;;;3.40;3.10;;;;;;;9.12;100.00;100035.13;4969806;28;20197;-72
2022/12/29 03:03:44;;;;;;;4.23;3.27;;;;;;;9.12;100.00;100025.75;4971822;28;20776;-72
2022/12/29 03:06:21;;;;;;;3.50;3.20;;;;;;;9.14;100.00;100010.44;4971995;28;20193;-72
2022/12/29 03:09:03;;;;;;;5.23;3.73;;;;;;;9.19;100.00;100021.56;4970373;28;20335;-72
2022/12/29 03:12:08;;;;;;;3.37;3.07;;;;;;;9.16;100.00;100012.16;4948479;28;20188;-72
2022/12/29 03:18:05;;;;;;;4.37;3.53;;;;;;;9.17;100.00;100013.03;4969674;28;20673;-73
2022/12/29 03:21:02;;;;;;;3.33;3.03;;;;;;;9.17;100.00;100015.59;4958168;28;20204;-70
2022/12/29 03:23:30;;;;;;;4.13;3.47;;;;;;;9.17;100.00;100008.78;4970229;28;20596;-73
2022/12/29 03:26:01;;;;;;;5.00;2.80;;;;;;;9.19;100.00;99999.44;4953159;28;20199;-72
2022/12/29 03:28:36;;;;;;;4.13;2.50;;;;;;;9.25;100.00;99991.84;4955189;28;20199;-72
2022/12/29 03:31:04;;;;;;;3.17;2.70;;;;;;;9.25;100.00;99990.97;4970877;28;20541;-70
2022/12/29 03:33:31;;;;;;;3.13;2.57;;;;;;;9.29;100.00;99992.72;4969721;28;20639;-72
2022/12/29 03:36:04;;;;;;;3.90;2.43;;;;;;;9.28;100.00;99986.78;4971120;28;20189;-72
2022/12/29 03:38:45;;;;;;;3.40;2.37;;;;;;;9.33;100.00;99981.69;4954304;28;20212;-72
2022/12/29 03:41:15;;;;;;;3.60;2.37;;;;;;;9.29;100.00;99985.06;4951225;28;20199;-72
2022/12/29 03:43:42;;;;;;;3.40;2.00;;;;;;;9.30;100.00;99974.88;4969233;28;20188;-72
2022/12/29 03:46:08;;;;;;;2.63;2.20;;;;;;;9.30;100.00;99967.19;4972125;28;20927;-72
2022/12/29 03:48:34;;;;;;;3.47;2.27;;;;;;;9.36;100.00;99980.03;4973785;28;20187;-72
2022/12/29 03:50:59;;;;;;;2.63;1.70;;;;;;;9.35;100.00;99972.38;4953560;28;20196;-72
2022/12/29 03:53:26;;;;;;;2.53;1.97;;;;;;;9.36;100.00;99967.25;4966641;28;20320;-72
2022/12/29 03:55:52;;;;;;;3.23;1.70;;;;;;;9.39;100.00;99964.75;4970777;28;20245;-71
2022/12/29 03:58:17;;;;;;;4.50;1.80;;;;;;;9.37;100.00;99966.44;4960342;28;20219;-71
2022/12/29 04:01:04;;;;;;;3.07;2.07;;;;;;;9.52;100.00;99966.56;4948677;28;20264;-70
2022/12/29 04:03:32;;;;;;;2.53;1.90;;;;;;;9.45;100.00;99964.78;4970720;28;20189;-71
2022/12/29 04:05:58;;;;;;;2.23;1.80;;;;;;;9.43;100.00;99961.38;4953891;28;20197;-71
2022/12/29 04:08:24;;;;;;;2.10;1.90;;;;;;;9.48;100.00;99969.94;4973707;28;20222;-71
2022/12/29 04:10:49;;;;;;;1.93;1.73;;;;;;;9.51;100.00;99962.31;4969968;28;20196;-71
2022/12/29 04:13:16;;;;;;;1.97;1.60;;;;;;;9.48;100.00;99952.06;4970420;28;20184;-71
2022/12/29 04:15:43;;;;;;;3.83;1.70;;;;;;;9.51;100.00;99949.53;4970460;28;20187;-71
2022/12/29 04:18:09;;;;;;;3.07;1.50;;;;;;;9.53;100.00;99955.50;4967035;28;20320;-71
2022/12/29 04:23:19;;;;;;;2.10;1.77;;;;;;;9.59;100.00;99932.53;4968154;28;20188;-71
2022/12/29 04:25:48;;;;;;;1.87;1.70;;;;;;;9.67;100.00;99945.41;4953368;28;20271;-71
2022/12/29 04:28:15;;;;;;;1.83;1.47;;;;;;;9.67;100.00;99947.97;4966771;28;20187;-71
2022/12/29 04:30:49;;;;;;;1.93;1.80;;;;;;;9.66;100.00;99943.69;4960144;28;20248;-70
2022/12/29 04:33:35;;;;;;;1.70;1.40;;;;;;;9.68;100.00;99942.00;4969622;28;20678;-71
2022/12/29 04:36:02;;;;;;;2.20;1.40;;;;;;;9.69;100.00;99941.16;4968528;28;20282;-70
2022/12/29 04:38:28;;;;;;;1.60;1.50;;;;;;;9.70;100.00;99940.31;4943446;28;20688;-70
2022/12/29 04:40:54;;;;;;;1.67;1.53;;;;;;;9.71;100.00;99926.69;4953304;28;20704;-70
2022/12/29 04:43:22;;;;;;;2.50;1.37;;;;;;;9.72;100.00;99930.97;4966019;28;20666;-70
2022/12/29 04:46:12;;;;;;;1.53;1.40;;;;;;;9.72;100.00;99921.59;4950296;28;20662;-70
2022/12/29 04:49:08;;;;;;;3.37;1.73;;;;;;;9.72;100.00;99913.91;4967313;28;20224;-71
2022/12/29 04:52:12;;;;;;;1.97;1.80;;;;;;;9.71;100.00;99919.88;4926885;29;20903;-70
2022/12/29 04:54:39;;;;;;;2.20;1.70;;;;;;;9.71;100.00;99913.91;4915209;29;20220;-70
2022/12/29 04:57:10;;;;;;;2.90;1.40;;;;;;;9.70;100.00;99910.50;4934048;28;20224;-71
2022/12/29 04:59:37;;;;;;;3.40;1.70;;;;;;;9.71;100.00;99912.22;4967226;28;20205;-71
2022/12/29 05:02:03;;;;;;;2.20;1.80;;;;;;;9.68;100.00;99909.63;4972174;28;20690;-73
2022/12/29 05:04:31;;;;;;;2.97;1.77;;;;;;;9.67;100.00;99896.84;4969695;28;20656;-71
2022/12/29 05:06:56;;;;;;;2.57;1.47;;;;;;;9.67;100.00;99902.81;4970669;28;20270;-71
2022/12/29 05:09:23;;;;;;;1.90;1.57;;;;;;;9.66;100.00;99900.22;4965909;28;20289;-71
2022/12/29 05:11:49;;;;;;;2.30;1.80;;;;;;;9.65;100.00;99911.31;4969318;28;20180;-71
2022/12/29 05:14:14;;;;;;;2.27;1.80;;;;;;;9.63;100.00;99901.06;4969719;28;20251;-71
2022/12/29 05:16:40;;;;;;;2.40;1.80;;;;;;;9.62;100.00;99907.03;4971841;28;20200;-71
2022/12/29 05:19:05;;;;;;;1.80;1.60;;;;;;;9.60;100.00;99898.50;4949783;28;20693;-70
2022/12/29 05:21:32;;;;;;;3.53;1.70;;;;;;;9.62;100.00;99904.47;4970497;28;20283;-71
2022/12/29 05:23:58;;;;;;;2.60;2.03;;;;;;;9.61;100.00;99909.56;4950384;28;20215;-71
2022/12/29 05:26:23;;;;;;;2.27;2.07;;;;;;;9.63;100.00;99902.78;4950788;28;20225;-71
2022/12/29 05:29:15;;;;;;;1.93;1.70;;;;;;;9.63;100.00;99908.72;4958657;28;20225;-71
2022/12/29 05:31:41;;;;;;;2.40;2.20;;;;;;;9.64;100.00;99909.59;4970562;28;20196;-71
2022/12/29 05:34:06;;;;;;;3.33;1.90;;;;;;;9.62;100.00;99909.56;4950241;28;20192;-70
2022/12/29 05:36:32;;;;;;;2.00;1.80;;;;;;;9.61;100.00;99895.09;4959830;28;20793;-70
2022/12/29 05:39:03;;;;;;;1.90;1.80;;;;;;;9.64;100.00;99894.25;4949930;28;20599;-71
2022/12/29 05:41:29;;;;;;;2.63;1.70;;;;;;;9.63;100.00;99902.78;4966306;28;20193;-70
2022/12/29 05:44:13;;;;;;;2.03;1.83;;;;;;;9.59;100.00;99901.88;4963567;28;20215;-71
2022/12/29 05:46:44;;;;;;;2.53;2.00;;;;;;;9.62;100.00;99888.25;4970112;28;20243;-71
2022/12/29 05:49:30;;;;;;;1.90;1.80;;;;;;;9.58;100.00;99884.00;4969810;28;20705;-71
2022/12/29 05:52:14;;;;;;;1.50;1.30;;;;;;;9.58;100.00;99891.66;4966656;28;20620;-71
2022/12/29 05:54:39;;;;;;;2.60;1.50;;;;;;;9.59;100.00;99896.75;4967216;28;20201;-71
2022/12/29 05:57:10;;;;;;;2.37;1.60;;;;;;;9.60;100.00;99912.97;4953035;28;20348;-71
2022/12/29 05:59:37;;;;;;;2.23;1.40;;;;;;;9.62;100.00;99907.03;4968737;28;20208;-70
2022/12/29 06:02:04;;;;;;;1.90;1.53;;;;;;;9.64;100.00;99920.66;4952554;28;20239;-70
2022/12/29 06:04:30;;;;;;;2.70;1.93;;;;;;;9.62;100.00;99916.38;4968791;28;20569;-71
2022/12/29 06:06:56;;;;;;;1.47;1.30;;;;;;;9.65;100.00;99924.94;4950852;28;20263;-71
2022/12/29 06:09:41;;;;;;;2.10;1.47;;;;;;;9.66;100.00;99916.44;4965865;28;20584;-71
2022/12/29 06:12:07;;;;;;;1.50;1.40;;;;;;;9.66;100.00;99910.44;4956589;28;20672;-71
2022/12/29 06:14:33;;;;;;;2.27;1.77;;;;;;;9.69;100.00;99913.03;4965876;28;20189;-71
2022/12/29 06:16:59;;;;;;;2.17;1.60;;;;;;;9.68;100.00;99907.06;4949590;28;21870;-70
2022/12/29 06:19:25;;;;;;;2.70;1.73;;;;;;;9.67;100.00;99907.06;4971632;28;20216;-71
2022/12/29 06:21:52;;;;;;;2.47;1.50;;;;;;;9.68;100.00;99914.72;4968498;28;20177;-71
2022/12/29 06:24:18;;;;;;;2.37;1.47;;;;;;;9.71;100.00;99911.34;4951794;28;20184;-71
2022/12/29 06:26:43;;;;;;;1.90;1.70;;;;;;;9.72;100.00;99916.47;4965989;28;20202;-71
2022/12/29 06:29:09;;;;;;;1.67;1.37;;;;;;;9.78;100.00;99921.66;4966319;28;20345;-70
2022/12/29 06:31:35;;;;;;;1.57;1.47;;;;;;;9.87;100.00;99915.75;4968860;28;20189;-71
2022/12/29 06:34:02;;;;;;;1.43;1.20;;;;;;;9.92;100.00;99914.06;4971748;28;20196;-71
2022/12/29 06:36:28;;;;;;;2.87;1.50;;;;;;;9.92;100.00;99914.06;4966607;28;20188;-71
2022/12/29 06:38:54;;;;;;;2.73;1.30;;;;;;;9.91;100.00;99915.75;4949038;28;20576;-71
2022/12/29 06:41:20;;;;;;;1.73;1.20;;;;;;;9.89;100.00;99917.47;4947742;28;20211;-71
2022/12/29 06:44:04;;;;;;;1.77;1.50;;;;;;;9.89;100.00;99901.25;4968619;28;20279;-71
2022/12/29 06:46:48;;;;;;;1.97;1.67;;;;;;;9.89;100.00;99909.78;4969574;28;20176;-70
2022/12/29 06:49:14;;;;;;;1.63;1.20;;;;;;;9.88;100.00;99892.75;4969311;28;20227;-71
2022/12/29 06:51:39;;;;;;;1.83;1.40;;;;;;;9.86;100.00;99891.84;4969088;28;21268;-72
2022/12/29 06:54:05;;;;;;;1.60;1.50;;;;;;;9.85;100.00;99895.28;4964265;28;20678;-70
2022/12/29 06:56:31;;;;;;;2.03;1.27;;;;;;;9.87;100.00;99895.28;4966809;28;20634;-71
2022/12/29 06:58:56;;;;;;;2.60;1.80;;;;;;;9.86;100.00;99889.31;4967300;28;20211;-71
2022/12/29 07:01:22;;;;;;;2.43;1.63;;;;;;;9.85;100.00;99900.38;4965314;28;20181;-71
2022/12/29 07:03:47;;;;;;;2.40;1.50;;;;;;;9.85;100.00;99896.97;4968759;28;20195;-71
2022/12/29 07:06:13;;;;;;;1.70;1.60;;;;;;;9.84;100.00;99900.38;4970144;28;20195;-71
2022/12/29 07:08:38;;;;;;;2.07;1.37;;;;;;;9.84;100.00;99898.69;4971386;28;20605;-71
2022/12/29 07:11:04;;;;;;;2.83;1.60;;;;;;;9.81;100.00;99888.41;4966528;28;20207;-71
2022/12/29 07:13:30;;;;;;;3.30;1.33;;;;;;;9.83;100.00;99891.84;4972917;28;20299;-71
2022/12/29 07:15:55;;;;;;;2.13;1.50;;;;;;;9.81;100.00;99890.97;4973415;28;20243;-71
2022/12/29 07:18:21;;;;;;;2.37;1.77;;;;;;;9.80;100.00;99886.72;4973502;28;20686;-71
2022/12/29 07:20:46;;;;;;;2.57;1.70;;;;;;;9.79;100.00;99897.78;4969807;28;20216;-71
2022/12/29 07:23:12;;;;;;;1.77;1.67;;;;;;;9.79;100.00;99879.03;4973673;28;20192;-71
2022/12/29 07:25:37;;;;;;;2.40;1.43;;;;;;;9.80;100.00;99879.03;4970273;28;20203;-71
2022/12/29 07:28:03;;;;;;;1.70;1.40;;;;;;;9.79;100.00;99892.69;4970720;28;20223;-71
2022/12/29 07:30:29;;;;;;;2.93;1.30;;;;;;;9.86;100.00;99880.78;4972734;28;20694;-71
2022/12/29 07:32:54;;;;;;;2.63;1.30;;;;;;;9.92;100.00;99884.25;4972535;28;20184;-71
2022/12/29 07:35:20;;;;;;;1.03;0.93;;;;;;;10.06;100.00;99900.56;4971026;28;20844;-71
2022/12/29 07:37:45;;;;;;;2.00;0.90;;;;;;;9.99;100.00;99909.00;4967021;28;20709;-72
2022/12/29 07:40:12;;;;;;;2.30;1.03;;;;;;;9.98;100.00;99891.94;4962480;28;20712;-71
2022/12/29 07:42:38;;;;;;;2.00;0.87;;;;;;;9.95;100.00;99904.72;4969606;28;20717;-71
2022/12/29 07:45:08;;;;;;;2.83;0.93;;;;;;;9.93;100.00;99921.75;4969402;28;20963;-71
2022/12/29 07:47:53;;;;;;;3.50;1.37;;;;;;;9.87;100.00;99916.56;4971125;28;20195;-71
2022/12/29 07:50:18;;;;;;;2.23;1.03;;;;;;;9.86;100.00;99914.03;4970796;28;20220;-71
2022/12/29 07:52:44;;;;;;;2.07;0.93;;;;;;;9.85;100.00;99922.53;4969763;28;20201;-71
2022/12/29 07:55:10;;;;;;;1.30;1.20;;;;;;;9.89;100.00;99906.38;4965390;28;20204;-71
2022/12/29 07:57:35;;;;;;;1.63;1.10;;;;;;;9.88;100.00;99912.31;4966034;28;20343;-70
2022/12/29 08:00:01;;;;;;;1.43;1.20;;;;;;;9.84;100.00;99920.81;4971685;28;20275;-70
2022/12/29 08:02:37;;;;;;;4.07;1.60;;;;;;;9.85;100.00;99915.72;4967624;28;20346;-71
2022/12/29 08:05:03;;;;;;;2.93;1.67;;;;;;;9.87;100.00;99934.47;4967465;28;20274;-73
2022/12/29 08:07:29;;;;;;;2.67;1.60;;;;;;;9.89;100.00;99937.03;4972524;28;20228;-73
2022/12/29 08:09:54;;;;;;;3.10;1.50;;;;;;;9.89;100.00;99920.00;4969694;28;20216;-73
2022/12/29 08:12:19;;;;;;;1.90;1.50;;;;;;;9.91;100.00;99925.97;4968783;28;20192;-72
2022/12/29 08:14:45;;;;;;;3.37;1.57;;;;;;;9.95;100.00;99937.94;4969327;28;20203;-72
2022/12/29 08:17:10;;;;;;;1.90;1.33;;;;;;;9.96;100.00;99941.38;4972295;28;20216;-71
2022/12/29 08:19:36;;;;;;;1.23;1.10;;;;;;;9.97;100.00;99935.41;4969984;28;20208;-71
2022/12/29 08:22:02;;;;;;;2.27;1.30;;;;;;;9.98;100.00;99935.41;4953908;28;20553;-71
2022/12/29 08:24:27;;;;;;;1.97;1.30;;;;;;;9.96;100.00;99937.09;4970891;28;20192;-71
2022/12/29 08:26:53;;;;;;;1.70;1.30;;;;;;;9.97;100.00;99949.06;4969987;28;20525;-73
2022/12/29 08:29:19;;;;;;;2.13;1.10;;;;;;;9.99;100.00;99949.03;4971017;28;20276;-73
2022/12/29 08:31:45;;;;;;;1.83;1.10;;;;;;;10.00;100.00;99950.78;4969522;28;20197;-72
2022/12/29 08:34:10;;;;;;;1.60;1.07;;;;;;;9.98;100.00;99955.00;4970661;28;20184;-73
2022/12/29 08:36:36;;;;;;;1.47;0.90;;;;;;;9.98;100.00;99965.25;4969120;28;20216;-71
2022/12/29 08:39:02;;;;;;;1.70;1.00;;;;;;;9.92;100.00;99960.97;4969688;28;20291;-71
2022/12/29 08:41:27;;;;;;;1.37;1.07;;;;;;;9.86;100.00;99962.59;4965223;28;20204;-71
2022/12/29 08:43:53;;;;;;;3.33;1.30;;;;;;;9.88;100.00;99956.66;4951562;28;20196;-71
2022/12/29 08:46:19;;;;;;;2.00;0.70;;;;;;;9.90;100.00;99961.78;4967780;28;20211;-71
2022/12/29 08:48:45;;;;;;;2.20;0.90;;;;;;;10.05;100.00;99959.38;4964271;28;20189;-71
2022/12/29 08:51:10;;;;;;;2.60;0.80;;;;;;;10.17;100.00;99964.56;4965295;28;20222;-71
2022/12/29 08:53:36;;;;;;;4.97;0.87;;;;;;;10.21;100.00;99968.84;4966135;28;20196;-71
2022/12/29 08:56:02;;;;;;;6.00;1.07;;;;;;;10.11;100.00;99965.41;4971243;28;20192;-71
2022/12/29 08:58:27;;;;;;;2.13;0.80;;;;;;;10.12;100.00;99971.34;4969613;28;20231;-73
2022/12/29 09:00:55;;;;;;;1.00;0.90;;;;;;;10.21;100.00;99979.94;4950871;28;20200;-71
2022/12/29 09:03:21;;;;;;;4.17;1.13;;;;;;;10.26;100.00;99985.94;4966926;28;20220;-71
2022/12/29 09:05:54;;;;;;;1.00;0.50;;;;;;;10.18;100.00;99990.16;4969581;28;20184;-71
2022/12/29 09:08:20;;;;;;;1.37;0.80;;;;;;;10.16;100.00;99993.53;4958213;28;20192;-73
2022/12/29 09:10:46;;;;;;;2.90;1.07;;;;;;;10.16;100.00;99994.41;4968371;28;20204;-70
2022/12/29 09:13:12;;;;;;;1.63;0.73;;;;;;;10.18;100.00;99982.47;4970462;28;20195;-72
2022/12/29 09:15:38;;;;;;;2.23;0.80;;;;;;;10.17;100.00;99982.47;4968142;28;20196;-72
2022/12/29 09:18:04;;;;;;;2.60;0.63;;;;;;;10.32;100.00;99985.97;4968786;28;20223;-71
2022/12/29 09:20:29;;;;;;;2.80;0.90;;;;;;;10.36;100.00;99987.72;4968188;28;20223;-72
2022/12/29 09:22:54;;;;;;;1.70;0.77;;;;;;;10.29;99.62;99987.69;4968559;28;20606;-72
2022/12/29 09:25:22;;;;;;;2.07;0.73;;;;;;;10.25;98.96;99979.13;4967510;28;20203;-72
2022/12/29 09:27:47;;;;;;;3.00;0.60;;;;;;;10.30;98.95;100004.72;4963795;28;20206;-71
2022/12/29 09:30:14;;;;;;;2.17;1.17;;;;;;;10.29;98.68;99993.66;4964925;28;20231;-71
2022/12/29 09:32:40;;;;;;;2.87;1.07;;;;;;;10.29;98.53;100005.59;4962024;28;20197;-71
2022/12/29 09:35:06;;;;;;;3.10;1.10;;;;;;;10.27;99.16;100005.56;4968202;28;20199;-71
2022/12/29 09:37:32;;;;;;;7.00;1.27;;;;;;;10.32;97.82;100003.06;4964946;28;20212;-71
2022/12/29 09:39:57;;;;;;;1.63;0.70;;;;;;;10.37;96.96;100014.19;4964281;28;20231;-71
2022/12/29 09:42:39;;;;;;;3.90;1.30;;;;;;;10.39;96.07;100017.59;4963041;28;20199;-71
2022/12/29 09:45:14;;;;;;;3.93;1.00;;;;;;;10.36;95.75;100017.56;4961257;28;20191;-71
2022/12/29 09:47:42;;;;;;;3.13;1.20;;;;;;;10.37;95.61;100012.44;4964036;28;20227;-73
2022/12/29 09:50:22;;;;;;;3.00;1.10;;;;;;;10.45;95.76;100021.03;4966909;28;20212;-74
2022/12/29 09:53:01;;;;;;;1.37;1.00;;;;;;;10.55;94.58;100016.84;4969813;28;20669;-73
2022/12/29 09:55:44;;;;;;;3.87;1.03;;;;;;;10.74;94.30;100010.97;4963675;28;20208;-72
2022/12/29 09:58:18;;;;;;;3.30;0.97;;;;;;;10.68;93.51;100006.69;4956108;28;20212;-72
2022/12/29 10:01:06;;;;;;;2.90;1.03;;;;;;;10.76;92.55;100016.97;4970001;28;20254;-72
2022/12/29 10:03:45;;;;;;;3.80;0.90;;;;;;;10.92;91.60;100019.59;4962225;28;20716;-72
2022/12/29 10:06:37;;;;;;;5.53;1.57;;;;;;;11.10;91.41;100029.09;4966103;28;20191;-71
2022/12/29 10:09:25;;;;;;;3.93;0.93;;;;;;;11.22;90.43;100021.44;4966255;28;20326;-70
2022/12/29 10:12:22;;;;;;;4.40;1.37;;;;;;;11.14;90.14;100013.72;4964777;28;20214;-72
2022/12/29 10:15:10;;;;;;;2.87;0.97;;;;;;;11.01;91.74;100003.44;4963732;28;20204;-73
2022/12/29 10:17:46;;;;;;;4.17;1.13;;;;;;;11.05;91.03;100012.81;4966223;28;20200;-72
2022/12/29 10:20:26;;;;;;;3.67;1.03;;;;;;;11.41;90.64;100010.38;4964705;28;20693;-72
2022/12/29 10:23:20;;;;;;;4.87;1.50;;;;;;;11.27;89.92;100014.59;4961637;28;20229;-73
2022/12/29 10:25:46;;;;;;;4.00;1.10;;;;;;;11.52;90.41;100006.97;4965842;28;20192;-73
2022/12/29 10:28:18;;;;;;;7.83;1.30;;;;;;;11.32;90.44;100012.91;4965631;28;20192;-72
2022/12/29 10:30:47;;;;;;;5.27;1.40;;;;;;;11.23;91.21;100015.44;4956245;28;20224;-73
2022/12/29 10:33:18;;;;;;;4.50;1.27;;;;;;;11.79;88.80;100016.44;4960624;28;20196;-72
2022/12/29 10:35:45;;;;;;;3.57;1.20;;;;;;;12.36;86.22;100012.16;4967557;28;20206;-74
2022/12/29 10:38:35;;;;;;;5.63;1.27;;;;;;;14.29;75.21;99999.22;4961938;28;20232;-73
2022/12/29 10:41:11;;;;;;;3.47;1.10;;;;;;;14.28;74.80;99997.50;4963452;28;20560;-71
2022/12/29 10:43:46;;;;;;;3.90;1.23;;;;;;;12.91;78.98;100016.31;4966173;28;20209;-72
2022/12/29 10:46:20;;;;;;;5.77;1.43;;;;;;;11.91;84.47;100016.47;4962636;28;20654;-72
2022/12/29 10:48:47;;;;;;;3.60;1.20;;;;;;;11.89;85.87;100016.47;4958407;28;20211;-72
2022/12/29 10:51:23;;;;;;;5.90;1.83;;;;;;;12.03;85.04;100019.88;4963439;28;20663;-72
2022/12/29 10:53:59;;;;;;;2.53;1.20;;;;;;;12.37;81.98;100016.47;4963402;28;20216;-71
2022/12/29 10:56:39;;;;;;;7.77;1.60;;;;;;;11.91;84.96;100013.91;4963535;28;20211;-72
2022/12/29 10:59:24;;;;;;;6.37;2.07;;;;;;;11.67;85.71;100007.06;4962059;28;20213;-72
2022/12/29 11:02:04;;;;;;;6.97;1.67;;;;;;;11.45;85.65;100018.09;4948777;28;20576;-71
2022/12/29 11:05:01;;;;;;;7.30;2.23;;;;;;;11.28;87.39;100029.13;4966450;28;20196;-72
2022/12/29 11:07:29;;;;;;;5.07;2.13;;;;;;;11.49;87.16;100006.13;4965914;28;20203;-72
2022/12/29 11:10:29;;;;;;;5.40;1.50;;;;;;;12.12;83.56;100007.06;4962107;28;20224;-72
2022/12/29 11:13:00;;;;;;;3.87;1.63;;;;;;;11.90;83.74;100020.72;4962615;28;20205;-70
2022/12/29 11:15:26;;;;;;;5.83;1.60;;;;;;;11.64;83.49;100025.00;4964035;28;20227;-70
2022/12/29 11:17:57;;;;;;;4.50;1.17;;;;;;;11.65;83.35;100015.56;4964159;28;20700;-71
2022/12/29 11:20:37;;;;;;;5.53;1.50;;;;;;;11.64;82.68;100011.31;4962750;28;20228;-71
2022/12/29 11:23:05;;;;;;;3.27;1.07;;;;;;;11.62;82.55;100020.72;4968330;28;20219;-71
2022/12/29 11:25:31;;;;;;;4.83;1.13;;;;;;;11.57;83.24;100010.41;4968522;28;20291;-71
2022/12/29 11:28:02;;;;;;;7.23;1.27;;;;;;;11.50;83.52;100008.69;4965470;28;20326;-74
2022/12/29 11:30:30;;;;;;;4.43;1.23;;;;;;;11.35;84.52;100018.06;4963672;28;20240;-72
2022/12/29 11:32:57;;;;;;;7.27;1.70;;;;;;;11.19;84.54;100031.66;4967103;28;20205;-70
2022/12/29 11:35:34;;;;;;;3.70;1.40;;;;;;;11.04;84.15;100026.47;4964098;28;20256;-70
2022/12/29 11:38:02;;;;;;;7.10;1.60;;;;;;;10.96;85.66;100021.31;4965029;28;20236;-70
2022/12/29 11:40:28;;;;;;;6.20;1.27;;;;;;;10.89;88.01;100022.16;4963795;28;20212;-71
2022/12/29 11:42:56;;;;;;;4.43;1.17;;;;;;;10.95;89.39;100034.13;4965267;28;20204;-71
2022/12/29 11:45:25;;;;;;;4.17;1.07;;;;;;;10.95;88.90;100029.00;4937124;28;20200;-71
2022/12/29 11:47:55;;;;;;;2.70;1.00;;;;;;;10.78;89.21;100035.75;4960773;28;20189;-71
2022/12/29 11:50:26;;;;;;;2.10;0.90;;;;;;;10.77;89.48;100022.09;4965905;28;20224;-70
2022/12/29 11:53:00;;;;;;;7.23;1.43;;;;;;;11.69;87.22;100023.28;4964791;28;20626;-71
2022/12/29 11:55:28;;;;;;;5.80;1.10;;;;;;;11.91;82.93;100024.16;4964213;28;20235;-71
2022/12/29 11:57:56;;;;;;;3.33;1.00;;;;;;;11.31;86.85;100024.88;4961257;28;20225;-71
2022/12/29 12:00:27;;;;;;;4.30;1.13;;;;;;;10.92;89.41;100023.88;4949315;28;20271;-71
2022/12/29 12:03:04;;;;;;;4.17;1.30;;;;;;;10.66;91.28;100031.44;4961610;28;20316;-71
2022/12/29 12:05:37;;;;;;;4.20;1.07;;;;;;;10.55;91.30;100027.09;4963652;28;20237;-71
2022/12/29 12:08:09;;;;;;;3.10;0.90;;;;;;;10.65;91.89;100024.56;4960660;28;20275;-72
2022/12/29 12:10:44;;;;;;;4.13;1.30;;;;;;;10.68;92.07;100018.63;4962827;28;20225;-72
2022/12/29 12:13:31;;;;;;;3.80;1.00;;;;;;;10.78;91.90;100018.66;4963604;28;20788;-72
2022/12/29 12:15:56;;;;;;;4.87;1.33;;;;;;;10.66;91.88;100028.00;4972992;28;20196;-73
2022/12/29 12:18:50;;;;;;;3.40;1.73;;;;;;;10.74;91.68;100021.22;4967630;28;20768;-72
2022/12/29 12:21:25;;;;;;;3.83;1.40;;;;;;;10.99;90.62;100017.91;4960047;28;20213;-73